Time;durP1;ratioP1;P1;durP2;ratioP2;P2;SDS_P1;SDS_P2;PMS_P1;PMS_P2;Temp;Humidity;BMP_temperature;BMP_pressure;BME280_temperature;BME280_humidity;BME280_pressure;Samples;Min_cycle;Max_cycle;Signal;HPM_P1;HPM_P2
2021/12/19 00:00:17;;;;;;;18.77;9.35;;;;;;;;;;5052700;28;20036;-44
2021/12/19 00:10:29;;;;;;;16.30;8.65;;;;;;;;;;5052723;28;20083;-42
2021/12/19 00:12:57;;;;;;;18.13;9.38;;;;;;;;;;5051850;28;20504;-45
2021/12/19 00:15:22;;;;;;;18.38;8.82;;;;;;;;;;5051648;28;20120;-41
2021/12/19 00:17:48;;;;;;;18.27;9.23;;;;;;;;;;5051066;28;20099;-36
2021/12/19 00:20:13;;;;;;;18.83;9.02;;;;;;;;;;5051148;28;20036;-44
2021/12/19 00:22:39;;;;;;;19.10;9.93;;;;;;;;;;5051233;28;20028;-36
2021/12/19 00:25:06;;;;;;;17.85;9.63;;;;;;;;;;5051944;28;20111;-36
2021/12/19 00:27:32;;;;;;;17.73;9.90;;;;;;;;;;5051862;28;20025;-38
2021/12/19 00:29:58;;;;;;;17.30;9.52;;;;;;;;;;5050933;28;20025;-39
2021/12/19 00:32:24;;;;;;;18.60;10.15;;;;;;;;;;5033115;28;20025;-36
2021/12/19 00:34:51;;;;;;;20.00;9.55;;;;;;;;;;5041297;28;20599;-36
2021/12/19 00:37:21;;;;;;;17.20;9.73;;;;;;;;;;5051716;28;20059;-43
2021/12/19 00:39:47;;;;;;;18.02;8.45;;;;;;;;;;5052355;28;20031;-36
2021/12/19 00:42:24;;;;;;;19.55;8.90;;;;;;;;;;5052207;28;20091;-39
2021/12/19 00:44:50;;;;;;;18.73;9.10;;;;;;;;;;5051981;28;20389;-41
2021/12/19 00:47:15;;;;;;;19.45;10.07;;;;;;;;;;5055129;28;20044;-47
2021/12/19 00:49:41;;;;;;;22.58;9.38;;;;;;;;;;5056328;28;20028;-42
2021/12/19 00:52:06;;;;;;;15.52;9.18;;;;;;;;;;5056042;28;20029;-40
2021/12/19 00:54:32;;;;;;;17.90;10.30;;;;;;;;;;5055923;28;20032;-42
2021/12/19 00:56:57;;;;;;;20.80;9.60;;;;;;;;;;5056091;28;20036;-42
2021/12/19 00:59:23;;;;;;;18.77;9.57;;;;;;;;;;5055906;28;20021;-39
2021/12/19 01:01:49;;;;;;;17.02;9.10;;;;;;;;;;5056084;28;20104;-39
2021/12/19 01:04:17;;;;;;;18.02;8.85;;;;;;;;;;5055735;28;20048;-44
2021/12/19 01:06:45;;;;;;;22.30;9.63;;;;;;;;;;5055388;28;20461;-40
2021/12/19 01:09:11;;;;;;;17.75;8.65;;;;;;;;;;5055288;28;20029;-38
2021/12/19 01:11:37;;;;;;;16.88;9.05;;;;;;;;;;5055469;28;20028;-50
2021/12/19 01:14:04;;;;;;;15.45;9.10;;;;;;;;;;5055394;28;20037;-46
2021/12/19 01:16:30;;;;;;;16.33;9.27;;;;;;;;;;5055298;28;20507;-42
2021/12/19 01:18:55;;;;;;;21.38;9.05;;;;;;;;;;5055426;28;20033;-42
2021/12/19 01:21:21;;;;;;;16.92;9.07;;;;;;;;;;5037944;28;20021;-46
2021/12/19 01:23:47;;;;;;;20.52;9.85;;;;;;;;;;5055278;28;20508;-44
2021/12/19 01:26:13;;;;;;;21.88;9.38;;;;;;;;;;5055305;28;20021;-46
2021/12/19 01:28:39;;;;;;;17.95;8.40;;;;;;;;;;5055173;28;20028;-39
2021/12/19 01:31:05;;;;;;;24.42;7.95;;;;;;;;;;5055222;28;20381;-39
2021/12/19 01:33:31;;;;;;;18.90;9.27;;;;;;;;;;5055248;28;20025;-41
2021/12/19 01:35:56;;;;;;;19.13;8.73;;;;;;;;;;5055040;28;20033;-38
2021/12/19 01:38:22;;;;;;;26.08;9.25;;;;;;;;;;5055360;28;20065;-41
2021/12/19 01:40:48;;;;;;;24.65;9.60;;;;;;;;;;5055311;28;20041;-41
2021/12/19 01:43:14;;;;;;;18.33;9.27;;;;;;;;;;5054975;28;20032;-36
2021/12/19 01:45:40;;;;;;;17.67;9.18;;;;;;;;;;5054767;28;20035;-41
2021/12/19 01:48:10;;;;;;;21.92;9.10;;;;;;;;;;5054758;28;20036;-46
2021/12/19 01:50:37;;;;;;;18.50;9.50;;;;;;;;;;5055235;28;20029;-41
2021/12/19 01:53:05;;;;;;;19.42;9.98;;;;;;;;;;5054819;28;20029;-43
2021/12/19 01:55:31;;;;;;;21.60;9.95;;;;;;;;;;5054765;28;20033;-40
2021/12/19 01:57:58;;;;;;;20.65;9.95;;;;;;;;;;5054391;28;20039;-40
2021/12/19 02:00:30;;;;;;;17.75;9.50;;;;;;;;;;5055083;28;20147;-36
2021/12/19 02:02:56;;;;;;;18.23;9.20;;;;;;;;;;5054781;28;20070;-37
2021/12/19 02:05:23;;;;;;;22.77;9.77;;;;;;;;;;5054746;28;20037;-36
2021/12/19 02:07:50;;;;;;;17.17;9.35;;;;;;;;;;5054908;28;20028;-36
2021/12/19 02:10:20;;;;;;;21.30;9.43;;;;;;;;;;5036866;28;20021;-36
2021/12/19 02:12:50;;;;;;;14.07;8.38;;;;;;;;;;5054583;28;20496;-36
2021/12/19 02:15:21;;;;;;;19.35;9.65;;;;;;;;;;5054364;28;20036;-36
2021/12/19 02:17:49;;;;;;;18.60;9.30;;;;;;;;;;5054810;28;20029;-36
2021/12/19 02:20:16;;;;;;;19.08;9.50;;;;;;;;;;5054415;28;20621;-36
2021/12/19 02:22:42;;;;;;;17.92;9.50;;;;;;;;;;5054511;28;20112;-38
2021/12/19 02:25:09;;;;;;;23.48;10.48;;;;;;;;;;5054265;28;20085;-51
2021/12/19 02:27:34;;;;;;;18.73;9.48;;;;;;;;;;5054518;28;20025;-48
2021/12/19 02:30:00;;;;;;;18.25;9.65;;;;;;;;;;5054537;28;20514;-50
2021/12/19 02:32:28;;;;;;;21.33;10.07;;;;;;;;;;5054263;28;20021;-36
2021/12/19 02:34:57;;;;;;;18.67;9.43;;;;;;;;;;5054378;28;20072;-36
2021/12/19 02:50:45;;;;;;;21.27;9.40;;;;;;;;;;5054171;28;20072;-36
2021/12/19 02:53:11;;;;;;;17.67;9.63;;;;;;;;;;5054119;28;20430;-35
2021/12/19 02:55:38;;;;;;;17.73;9.57;;;;;;;;;;5053857;28;20033;-37
2021/12/19 02:58:03;;;;;;;19.70;9.20;;;;;;;;;;5053096;28;20025;-36
2021/12/19 03:00:29;;;;;;;19.35;9.90;;;;;;;;;;5053305;28;20306;-40
2021/12/19 03:02:55;;;;;;;17.33;9.30;;;;;;;;;;5053490;28;20028;-37
2021/12/19 03:05:21;;;;;;;19.75;9.68;;;;;;;;;;5053066;28;20021;-36
2021/12/19 03:07:49;;;;;;;19.38;9.65;;;;;;;;;;5053567;28;20036;-36
2021/12/19 03:18:24;;;;;;;17.15;8.77;;;;;;;;;;5053564;28;20040;-36
2021/12/19 03:20:50;;;;;;;19.10;9.43;;;;;;;;;;5053467;28;20017;-36
2021/12/19 03:23:15;;;;;;;18.30;9.80;;;;;;;;;;5052919;28;20489;-36
2021/12/19 03:25:41;;;;;;;16.85;9.38;;;;;;;;;;5053128;28;20116;-36
2021/12/19 03:28:09;;;;;;;24.75;10.65;;;;;;;;;;5053336;28;20025;-36
2021/12/19 03:30:37;;;;;;;21.30;9.60;;;;;;;;;;5053371;28;20029;-36
2021/12/19 03:33:03;;;;;;;17.52;9.27;;;;;;;;;;5053281;28;20025;-36
2021/12/19 03:35:30;;;;;;;20.48;9.77;;;;;;;;;;5053160;28;20025;-36
2021/12/19 03:37:58;;;;;;;19.83;9.63;;;;;;;;;;5052980;28;20029;-37
2021/12/19 03:40:35;;;;;;;17.55;8.90;;;;;;;;;;5051608;28;20059;-36
2021/12/19 03:43:08;;;;;;;22.90;10.35;;;;;;;;;;5053155;28;20116;-36
2021/12/19 03:45:35;;;;;;;17.60;10.15;;;;;;;;;;5052875;28;20021;-36
2021/12/19 03:48:03;;;;;;;21.30;10.00;;;;;;;;;;5034916;28;20404;-37
2021/12/19 03:50:31;;;;;;;17.80;9.98;;;;;;;;;;5052684;28;20090;-36
2021/12/19 03:52:57;;;;;;;17.05;9.63;;;;;;;;;;5052569;28;20477;-37
2021/12/19 03:55:24;;;;;;;18.80;10.00;;;;;;;;;;5052560;28;20047;-38
2021/12/19 03:57:50;;;;;;;21.25;9.23;;;;;;;;;;5052819;28;20086;-37
2021/12/19 04:00:23;;;;;;;17.85;9.32;;;;;;;;;;5052746;28;20079;-36
2021/12/19 04:02:50;;;;;;;18.45;8.15;;;;;;;;;;5034632;28;20048;-36
2021/12/19 04:05:15;;;;;;;17.80;9.15;;;;;;;;;;5052698;28;20040;-37
2021/12/19 04:07:41;;;;;;;21.42;9.90;;;;;;;;;;5052344;28;20025;-37
2021/12/19 04:10:07;;;;;;;20.40;9.35;;;;;;;;;;5052612;28;20028;-47
2021/12/19 04:12:32;;;;;;;20.27;9.20;;;;;;;;;;5052073;28;20045;-49
2021/12/19 04:14:58;;;;;;;15.73;9.40;;;;;;;;;;5052121;28;20068;-47
2021/12/19 04:17:23;;;;;;;18.25;8.98;;;;;;;;;;5052566;28;20036;-49
2021/12/19 04:19:49;;;;;;;17.00;9.35;;;;;;;;;;5052118;28;20037;-48
2021/12/19 04:22:14;;;;;;;19.17;9.27;;;;;;;;;;5052266;28;20098;-47
2021/12/19 04:24:40;;;;;;;18.25;9.30;;;;;;;;;;5052187;28;20036;-48
2021/12/19 04:27:07;;;;;;;16.85;8.98;;;;;;;;;;5034677;28;20021;-44
2021/12/19 04:29:32;;;;;;;16.80;9.25;;;;;;;;;;5052187;28;20079;-45
2021/12/19 04:31:58;;;;;;;17.10;9.25;;;;;;;;;;5052148;28;20025;-47
2021/12/19 04:34:24;;;;;;;17.80;8.90;;;;;;;;;;5052181;28;20028;-47
2021/12/19 04:36:56;;;;;;;16.00;8.88;;;;;;;;;;5052073;28;20033;-47
2021/12/19 04:43:05;;;;;;;19.33;9.63;;;;;;;;;;5052485;28;20108;-48
2021/12/19 04:58:14;;;;;;;17.15;8.30;;;;;;;;;;5052020;28;20029;-37
2021/12/19 05:01:03;;;;;;;15.77;9.85;;;;;;;;;;5052243;28;20060;-37
2021/12/19 05:16:28;;;;;;;18.70;9.82;;;;;;;;;;5052089;28;20025;-37
2021/12/19 05:19:02;;;;;;;17.02;9.60;;;;;;;;;;5052002;28;20056;-37
2021/12/19 05:21:29;;;;;;;20.85;9.63;;;;;;;;;;5052061;28;20039;-37
2021/12/19 05:26:23;;;;;;;17.00;9.20;;;;;;;;;;5051703;28;20056;-38
2021/12/19 05:28:49;;;;;;;16.67;9.05;;;;;;;;;;5051648;28;20039;-39
2021/12/19 05:31:16;;;;;;;17.25;9.13;;;;;;;;;;5051692;28;20099;-38
2021/12/19 05:33:42;;;;;;;22.90;11.02;;;;;;;;;;5055125;28;20029;-39
2021/12/19 05:47:00;;;;;;;20.60;10.23;;;;;;;;;;5026276;28;20139;-38
2021/12/19 05:49:26;;;;;;;23.13;11.13;;;;;;;;;;5054970;28;20039;-36
2021/12/19 05:51:51;;;;;;;21.58;10.88;;;;;;;;;;5055010;28;20104;-40
2021/12/19 05:54:17;;;;;;;21.70;11.07;;;;;;;;;;5054939;28;20029;-37
2021/12/19 05:56:43;;;;;;;21.17;11.32;;;;;;;;;;5055020;28;20029;-47
2021/12/19 05:59:09;;;;;;;21.08;10.57;;;;;;;;;;5054753;28;20029;-47
2021/12/19 06:01:43;;;;;;;20.17;10.75;;;;;;;;;;5054710;28;20465;-51
2021/12/19 06:04:09;;;;;;;20.52;9.88;;;;;;;;;;5054744;28;20380;-44
2021/12/19 06:06:34;;;;;;;23.40;11.30;;;;;;;;;;5054875;28;20044;-37
2021/12/19 06:09:00;;;;;;;20.17;10.60;;;;;;;;;;5054921;28;20048;-46
2021/12/19 06:11:25;;;;;;;19.00;10.50;;;;;;;;;;5054637;28;20055;-44
2021/12/19 06:13:51;;;;;;;20.38;10.63;;;;;;;;;;5054477;28;20078;-50
2021/12/19 06:16:16;;;;;;;20.25;10.90;;;;;;;;;;5054387;28;20358;-48
2021/12/19 06:18:42;;;;;;;26.15;10.77;;;;;;;;;;5054689;28;20082;-50
2021/12/19 06:21:08;;;;;;;22.15;10.90;;;;;;;;;;5054519;28;20110;-50
2021/12/19 06:23:34;;;;;;;20.88;11.65;;;;;;;;;;5054381;28;20032;-45
2021/12/19 06:26:00;;;;;;;19.80;11.50;;;;;;;;;;5054362;28;20031;-47
2021/12/19 06:28:26;;;;;;;24.17;12.73;;;;;;;;;;5054622;28;20108;-48
2021/12/19 06:30:52;;;;;;;21.08;10.98;;;;;;;;;;5054519;28;20070;-47
2021/12/19 06:33:18;;;;;;;18.80;11.02;;;;;;;;;;5054324;28;20076;-43
2021/12/19 06:35:43;;;;;;;22.83;12.15;;;;;;;;;;5054135;28;20119;-46
2021/12/19 06:38:09;;;;;;;21.98;12.27;;;;;;;;;;5054408;28;20108;-47
2021/12/19 06:40:35;;;;;;;20.35;11.50;;;;;;;;;;5054321;28;20531;-49
2021/12/19 06:43:01;;;;;;;21.80;11.63;;;;;;;;;;5053349;28;20028;-47
2021/12/19 06:45:27;;;;;;;24.17;11.68;;;;;;;;;;5053585;28;20025;-49
2021/12/19 06:47:52;;;;;;;25.08;12.40;;;;;;;;;;5053949;28;20040;-47
2021/12/19 06:50:18;;;;;;;23.45;12.93;;;;;;;;;;5053850;28;20109;-47
2021/12/19 06:52:45;;;;;;;21.38;11.73;;;;;;;;;;5053867;28;20033;-43
2021/12/19 06:55:13;;;;;;;19.30;11.10;;;;;;;;;;5054058;28;20025;-45
2021/12/19 06:57:38;;;;;;;19.15;11.15;;;;;;;;;;5053820;28;20467;-41
2021/12/19 07:00:10;;;;;;;19.33;11.43;;;;;;;;;;5053669;28;20120;-44
2021/12/19 07:02:35;;;;;;;20.23;11.38;;;;;;;;;;5053643;28;20033;-46
2021/12/19 07:05:01;;;;;;;20.88;11.35;;;;;;;;;;5053841;28;20453;-36
2021/12/19 07:07:27;;;;;;;17.45;10.52;;;;;;;;;;5053549;28;20028;-44
2021/12/19 07:09:52;;;;;;;20.92;11.35;;;;;;;;;;5053482;28;20025;-43
2021/12/19 07:12:19;;;;;;;19.00;10.75;;;;;;;;;;5053553;28;20047;-42
2021/12/19 07:14:44;;;;;;;19.40;11.15;;;;;;;;;;5053723;28;20380;-39
2021/12/19 07:17:11;;;;;;;18.20;10.85;;;;;;;;;;5053645;28;20136;-42
2021/12/19 07:19:37;;;;;;;18.65;10.32;;;;;;;;;;5053584;28;20029;-40
2021/12/19 07:22:03;;;;;;;18.95;11.23;;;;;;;;;;5053182;28;20031;-36
2021/12/19 07:24:28;;;;;;;19.70;11.35;;;;;;;;;;5053221;28;20025;-38
2021/12/19 07:26:54;;;;;;;21.83;11.00;;;;;;;;;;5053096;28;20025;-40
2021/12/19 07:29:19;;;;;;;21.90;10.65;;;;;;;;;;5053084;28;20108;-39
2021/12/19 07:31:45;;;;;;;17.85;10.20;;;;;;;;;;5053339;28;20112;-36
2021/12/19 07:34:11;;;;;;;19.35;10.18;;;;;;;;;;5053092;28;20035;-39
2021/12/19 07:36:41;;;;;;;15.32;9.57;;;;;;;;;;5053155;28;20033;-41
2021/12/19 07:39:20;;;;;;;18.25;9.85;;;;;;;;;;5052932;28;20489;-39
2021/12/19 07:41:45;;;;;;;14.98;9.20;;;;;;;;;;5052961;28;20037;-46
2021/12/19 07:44:11;;;;;;;20.27;8.57;;;;;;;;;;5052880;28;20436;-47
2021/12/19 07:46:36;;;;;;;14.82;9.30;;;;;;;;;;5052844;28;20025;-46
2021/12/19 07:49:02;;;;;;;18.02;9.50;;;;;;;;;;5052829;28;20079;-45
2021/12/19 07:51:29;;;;;;;14.90;8.93;;;;;;;;;;5035195;28;20029;-47
2021/12/19 07:53:54;;;;;;;17.02;9.70;;;;;;;;;;5034807;28;20063;-44
2021/12/19 07:56:20;;;;;;;17.15;9.57;;;;;;;;;;5052518;28;20060;-45
2021/12/19 07:58:45;;;;;;;15.80;9.18;;;;;;;;;;5052614;28;20128;-43
2021/12/19 08:01:11;;;;;;;15.10;9.20;;;;;;;;;;5052837;28;20028;-44
2021/12/19 08:03:37;;;;;;;14.50;8.45;;;;;;;;;;5052823;28;20025;-46
2021/12/19 08:06:03;;;;;;;16.35;9.65;;;;;;;;;;5034792;28;20060;-45
2021/12/19 08:08:32;;;;;;;16.65;9.55;;;;;;;;;;5052766;28;20033;-48
2021/12/19 08:13:41;;;;;;;11.80;8.48;;;;;;;;;;5052352;28;20147;-44
2021/12/19 08:16:07;;;;;;;12.85;8.57;;;;;;;;;;5052385;28;20520;-47
2021/12/19 08:18:34;;;;;;;15.60;8.07;;;;;;;;;;5052632;28;20074;-43
2021/12/19 08:20:59;;;;;;;16.27;8.35;;;;;;;;;;5052298;28;20519;-48
2021/12/19 08:23:25;;;;;;;14.02;8.00;;;;;;;;;;5052384;28;20025;-44
2021/12/19 08:25:50;;;;;;;13.35;8.90;;;;;;;;;;5052323;28;20033;-46
2021/12/19 08:28:16;;;;;;;14.35;8.80;;;;;;;;;;5052220;28;20082;-49
2021/12/19 08:30:41;;;;;;;15.45;9.18;;;;;;;;;;5052535;28;20032;-48
2021/12/19 08:33:07;;;;;;;13.68;8.50;;;;;;;;;;5052228;28;20465;-48
2021/12/19 08:35:33;;;;;;;14.52;8.52;;;;;;;;;;5052124;28;20033;-46
2021/12/19 08:37:59;;;;;;;14.18;9.32;;;;;;;;;;5052457;28;20021;-45
2021/12/19 08:40:27;;;;;;;13.52;8.70;;;;;;;;;;5052067;28;20461;-46
2021/12/19 08:42:53;;;;;;;12.77;8.45;;;;;;;;;;5052247;28;20041;-47
2021/12/19 08:45:19;;;;;;;13.52;8.15;;;;;;;;;;5051911;28;20094;-42
2021/12/19 08:47:45;;;;;;;14.20;8.60;;;;;;;;;;5052009;28;20028;-45
2021/12/19 08:50:12;;;;;;;13.95;8.38;;;;;;;;;;5052060;28;20075;-44
2021/12/19 08:52:38;;;;;;;14.57;8.70;;;;;;;;;;5051966;28;20020;-47
2021/12/19 08:55:05;;;;;;;13.80;8.60;;;;;;;;;;5052250;28;20065;-48
2021/12/19 08:57:31;;;;;;;14.02;8.35;;;;;;;;;;5051583;28;20107;-36
2021/12/19 08:59:57;;;;;;;18.05;9.57;;;;;;;;;;5052084;28;20028;-43
2021/12/19 09:02:23;;;;;;;16.77;10.70;;;;;;;;;;5051677;28;20025;-40
2021/12/19 09:04:49;;;;;;;16.33;10.18;;;;;;;;;;5052050;28;20037;-45
2021/12/19 09:07:15;;;;;;;14.30;9.77;;;;;;;;;;5053422;28;20350;-40
2021/12/19 09:09:40;;;;;;;18.95;10.00;;;;;;;;;;5056012;28;20029;-37
2021/12/19 09:12:07;;;;;;;14.30;9.02;;;;;;;;;;5055537;28;20376;-42
2021/12/19 09:14:32;;;;;;;16.92;9.80;;;;;;;;;;5055683;28;20025;-48
2021/12/19 09:16:58;;;;;;;17.15;10.50;;;;;;;;;;5055869;28;20052;-39
2021/12/19 09:19:25;;;;;;;16.67;9.27;;;;;;;;;;5055610;28;20036;-36
2021/12/19 09:21:51;;;;;;;13.38;8.70;;;;;;;;;;5055796;28;20091;-38
2021/12/19 09:24:17;;;;;;;12.50;7.90;;;;;;;;;;5055446;28;20078;-38
2021/12/19 09:26:43;;;;;;;11.38;7.18;;;;;;;;;;5055252;28;20025;-45
2021/12/19 09:29:08;;;;;;;10.55;7.13;;;;;;;;;;5055578;28;20027;-44
2021/12/19 09:31:34;;;;;;;11.00;6.95;;;;;;;;;;5055186;28;20067;-45
2021/12/19 09:33:59;;;;;;;10.77;6.95;;;;;;;;;;5055102;28;20465;-47
2021/12/19 09:36:25;;;;;;;12.32;6.55;;;;;;;;;;5055288;28;20037;-46
2021/12/19 09:38:51;;;;;;;13.65;7.15;;;;;;;;;;5055119;28;20073;-44
2021/12/19 09:41:27;;;;;;;12.90;7.18;;;;;;;;;;5055036;28;20473;-46
2021/12/19 09:43:56;;;;;;;11.23;6.45;;;;;;;;;;5055023;28;20032;-45
2021/12/19 09:46:22;;;;;;;11.10;6.72;;;;;;;;;;5054857;28;20044;-40
2021/12/19 09:48:48;;;;;;;14.35;7.00;;;;;;;;;;5055099;28;20047;-36
2021/12/19 09:51:16;;;;;;;13.77;7.57;;;;;;;;;;5055220;28;20025;-36
2021/12/19 09:53:43;;;;;;;12.40;7.53;;;;;;;;;;5054909;28;20035;-37
2021/12/19 09:56:09;;;;;;;14.60;7.35;;;;;;;;;;5055057;28;20076;-36
2021/12/19 09:58:36;;;;;;;15.05;8.25;;;;;;;;;;5054761;28;20099;-37
2021/12/19 10:01:05;;;;;;;18.08;9.10;;;;;;;;;;5055036;28;20476;-37
2021/12/19 10:03:32;;;;;;;13.98;9.05;;;;;;;;;;5036911;28;20112;-36
2021/12/19 10:06:19;;;;;;;12.45;7.15;;;;;;;;;;5054690;28;20037;-36
2021/12/19 10:09:06;;;;;;;12.55;7.18;;;;;;;;;;5054984;28;20169;-36
2021/12/19 10:11:57;;;;;;;12.85;7.55;;;;;;;;;;5054724;28;20021;-36
2021/12/19 10:14:24;;;;;;;10.13;6.00;;;;;;;;;;5054905;28;20439;-37
2021/12/19 10:16:49;;;;;;;10.45;6.70;;;;;;;;;;5054513;28;20056;-36
2021/12/19 10:19:15;;;;;;;13.40;7.32;;;;;;;;;;5054020;28;20109;-41
2021/12/19 10:21:40;;;;;;;13.00;7.32;;;;;;;;;;5054339;28;20036;-37
2021/12/19 10:24:06;;;;;;;12.15;6.40;;;;;;;;;;5054374;28;20024;-36
2021/12/19 10:26:44;;;;;;;11.65;6.40;;;;;;;;;;5054442;28;20025;-36
2021/12/19 10:29:10;;;;;;;10.23;6.47;;;;;;;;;;5054365;28;20485;-36
2021/12/19 10:31:36;;;;;;;14.25;7.95;;;;;;;;;;5054305;28;20055;-37
2021/12/19 10:34:22;;;;;;;13.90;6.97;;;;;;;;;;5054591;28;20100;-37
2021/12/19 10:36:48;;;;;;;11.25;7.07;;;;;;;;;;5054221;28;20044;-37
2021/12/19 10:39:16;;;;;;;14.57;7.60;;;;;;;;;;5054536;28;20479;-36
2021/12/19 10:41:43;;;;;;;14.95;7.00;;;;;;;;;;5054219;28;20104;-36
2021/12/19 10:45:29;;;;;;;11.00;6.68;;;;;;;;;;5054071;28;20071;-37
2021/12/19 10:47:17;;;;;;;9.30;6.57;;;;;;;;;;5053831;28;20071;-37
2021/12/19 10:49:42;;;;;;;10.75;6.07;;;;;;;;;;5053690;28;20021;-37
2021/12/19 10:52:08;;;;;;;19.15;8.10;;;;;;;;;;5051507;28;20025;-38
2021/12/19 10:54:35;;;;;;;10.52;6.65;;;;;;;;;;5052902;28;20025;-37
2021/12/19 10:57:08;;;;;;;10.88;6.70;;;;;;;;;;5053574;28;20032;-37
2021/12/19 10:59:34;;;;;;;10.50;6.30;;;;;;;;;;5052339;28;20503;-37
2021/12/19 11:02:00;;;;;;;9.20;6.47;;;;;;;;;;5053470;28;20032;-37
2021/12/19 11:04:26;;;;;;;10.88;6.47;;;;;;;;;;5053409;28;20029;-37
2021/12/19 11:06:54;;;;;;;8.88;5.22;;;;;;;;;;5053711;28;20059;-37
2021/12/19 11:09:30;;;;;;;9.20;5.63;;;;;;;;;;5053471;28;20025;-41
2021/12/19 11:11:58;;;;;;;8.77;5.72;;;;;;;;;;5053314;28;20036;-41
2021/12/19 11:14:29;;;;;;;11.13;6.00;;;;;;;;;;5053438;28;20024;-37
2021/12/19 11:16:56;;;;;;;;;;;;;;;;;;5052543;28;20380;-39
2021/12/19 11:19:22;;;;;;;8.50;5.18;;;;;;;;;;5053601;28;19920;-42
2021/12/19 11:21:48;;;;;;;7.00;5.35;;;;;;;;;;5053266;28;20025;-38
2021/12/19 11:24:17;;;;;;;7.38;5.82;;;;;;;;;;5053311;28;20025;-43
2021/12/19 11:26:44;;;;;;;7.80;5.32;;;;;;;;;;5052761;28;20032;-39
2021/12/19 11:29:11;;;;;;;9.77;5.60;;;;;;;;;;5052297;28;20029;-41
2021/12/19 11:31:39;;;;;;;8.63;5.90;;;;;;;;;;5053078;28;20029;-37
2021/12/19 11:34:11;;;;;;;10.77;5.75;;;;;;;;;;5052344;28;20422;-38
2021/12/19 11:36:41;;;;;;;9.25;5.32;;;;;;;;;;5052824;28;20068;-37
2021/12/19 11:39:08;;;;;;;;;;;;;;;;;;5053396;28;20465;-37
2021/12/19 11:41:34;;;;;;;10.57;5.95;;;;;;;;;;5050080;28;19975;-36
2021/12/19 11:44:03;;;;;;;9.15;5.47;;;;;;;;;;5052755;28;20025;-38
2021/12/19 11:46:53;;;;;;;7.93;5.15;;;;;;;;;;5052799;28;20063;-37
2021/12/19 11:49:23;;;;;;;7.87;5.77;;;;;;;;;;5050569;28;20377;-37
2021/12/19 11:52:09;;;;;;;10.60;5.93;;;;;;;;;;5053040;28;20051;-36
2021/12/19 11:54:34;;;;;;;10.00;5.43;;;;;;;;;;5050841;28;20029;-36
2021/12/19 11:57:10;;;;;;;10.18;5.97;;;;;;;;;;5051325;28;20094;-36
2021/12/19 11:59:38;;;;;;;9.02;5.78;;;;;;;;;;5051344;28;20538;-37
2021/12/19 12:02:26;;;;;;;14.55;5.80;;;;;;;;;;5051317;28;20029;-36
2021/12/19 12:05:13;;;;;;;6.80;5.22;;;;;;;;;;5051103;28;20135;-36
2021/12/19 12:08:05;;;;;;;8.07;5.75;;;;;;;;;;5051100;28;20024;-38
2021/12/19 12:10:53;;;;;;;10.30;5.72;;;;;;;;;;5040179;28;20508;-37
2021/12/19 12:13:26;;;;;;;10.07;5.95;;;;;;;;;;5050566;28;20452;-37
2021/12/19 12:16:00;;;;;;;14.85;5.55;;;;;;;;;;5050912;28;20033;-37
2021/12/19 12:18:34;;;;;;;8.90;5.22;;;;;;;;;;5051120;28;20037;-36
2021/12/19 12:21:25;;;;;;;10.90;5.50;;;;;;;;;;5050980;28;20215;-37
2021/12/19 12:23:58;;;;;;;10.35;5.38;;;;;;;;;;5051067;28;20393;-37
2021/12/19 12:26:34;;;;;;;8.38;5.18;;;;;;;;;;5051014;28;20377;-37
2021/12/19 12:29:00;;;;;;;8.93;6.20;;;;;;;;;;5050494;28;20087;-37
2021/12/19 12:31:27;;;;;;;10.43;5.97;;;;;;;;;;5049266;28;20772;-36
2021/12/19 12:33:54;;;;;;;10.40;5.70;;;;;;;;;;5049201;28;20136;-36
2021/12/19 12:36:20;;;;;;;9.50;5.35;;;;;;;;;;5048944;28;20032;-39
2021/12/19 12:38:50;;;;;;;8.40;5.53;;;;;;;;;;5049851;28;20481;-38
2021/12/19 12:41:47;;;;;;;7.57;5.50;;;;;;;;;;5052152;28;20037;-37
2021/12/19 12:44:15;;;;;;;8.95;5.45;;;;;;;;;;5054702;28;20029;-36
2021/12/19 12:46:44;;;;;;;6.93;4.97;;;;;;;;;;5054348;28;20103;-37
2021/12/19 12:49:25;;;;;;;9.93;5.65;;;;;;;;;;5056061;28;20064;-38
2021/12/19 12:51:59;;;;;;;;;;;;;;;;;;5056448;28;20062;-42
2021/12/19 12:54:32;;;;;;;6.65;5.25;;;;;;;;;;5056356;28;20261;-41
2021/12/19 12:57:00;;;;;;;7.75;5.20;;;;;;;;;;5055784;28;20115;-41
2021/12/19 12:59:33;;;;;;;7.68;5.45;;;;;;;;;;5055938;28;20025;-41
2021/12/19 13:02:10;;;;;;;11.57;5.97;;;;;;;;;;5056264;28;20048;-46
2021/12/19 13:04:36;;;;;;;6.40;4.63;;;;;;;;;;5056204;28;20096;-45
2021/12/19 13:07:09;;;;;;;6.97;4.70;;;;;;;;;;5055826;28;20064;-44
2021/12/19 13:09:45;;;;;;;6.63;3.65;;;;;;;;;;5056161;28;20017;-45
2021/12/19 13:12:17;;;;;;;5.63;4.72;;;;;;;;;;5055567;28;20032;-44
2021/12/19 13:14:44;;;;;;;6.47;4.80;;;;;;;;;;5056004;28;20046;-40
2021/12/19 13:17:13;;;;;;;8.20;4.93;;;;;;;;;;5055865;28;20055;-49
2021/12/19 13:19:51;;;;;;;10.52;5.47;;;;;;;;;;5055595;28;20148;-37
2021/12/19 13:22:23;;;;;;;9.38;5.47;;;;;;;;;;5055589;28;20033;-44
2021/12/19 13:24:50;;;;;;;7.00;5.30;;;;;;;;;;5055494;28;20116;-37
2021/12/19 13:27:32;;;;;;;6.88;5.60;;;;;;;;;;5055380;28;20052;-38
2021/12/19 13:30:08;;;;;;;10.27;5.50;;;;;;;;;;5054816;28;20065;-38
2021/12/19 13:32:42;;;;;;;10.40;6.28;;;;;;;;;;5055281;28;20044;-43
2021/12/19 13:35:14;;;;;;;8.90;5.95;;;;;;;;;;5053694;28;20025;-38
2021/12/19 13:37:54;;;;;;;12.00;6.82;;;;;;;;;;5055076;28;20040;-41
2021/12/19 13:40:23;;;;;;;10.25;5.72;;;;;;;;;;5055465;28;20037;-41
2021/12/19 13:42:55;;;;;;;14.20;6.30;;;;;;;;;;5055183;28;20036;-38
2021/12/19 13:45:31;;;;;;;9.90;6.05;;;;;;;;;;5055271;28;20021;-37
2021/12/19 13:47:59;;;;;;;5.32;4.50;;;;;;;;;;5055191;28;20087;-36
2021/12/19 13:50:26;;;;;;;6.13;4.55;;;;;;;;;;5054993;28;20033;-37
2021/12/19 13:52:52;;;;;;;9.23;5.32;;;;;;;;;;5054576;28;20100;-37
2021/12/19 13:55:18;;;;;;;8.05;4.57;;;;;;;;;;5054966;28;20485;-37
2021/12/19 13:57:44;;;;;;;6.30;4.43;;;;;;;;;;5054891;28;20068;-36
2021/12/19 14:00:32;;;;;;;6.95;4.70;;;;;;;;;;5054832;28;20024;-37
2021/12/19 14:02:58;;;;;;;7.15;4.60;;;;;;;;;;5054092;28;20029;-39
2021/12/19 14:05:40;;;;;;;8.77;4.28;;;;;;;;;;5054765;28;20036;-36
2021/12/19 14:08:29;;;;;;;10.32;4.70;;;;;;;;;;5054986;28;20126;-39
2021/12/19 14:11:09;;;;;;;6.93;4.43;;;;;;;;;;5054537;28;20029;-37
2021/12/19 14:13:37;;;;;;;6.88;4.50;;;;;;;;;;5054446;28;20052;-37
2021/12/19 14:16:05;;;;;;;6.28;4.28;;;;;;;;;;5054360;28;20055;-37
2021/12/19 14:18:37;;;;;;;6.78;4.65;;;;;;;;;;5054656;28;20067;-37
2021/12/19 14:21:04;;;;;;;6.18;4.80;;;;;;;;;;5054141;28;20023;-40
2021/12/19 14:23:37;;;;;;;5.75;3.88;;;;;;;;;;5054405;28;20040;-37
2021/12/19 14:26:04;;;;;;;6.68;4.03;;;;;;;;;;5054412;28;20021;-37
2021/12/19 14:28:32;;;;;;;5.80;4.03;;;;;;;;;;5036640;28;20025;-41
2021/12/19 14:31:01;;;;;;;6.80;4.22;;;;;;;;;;5053998;28;20112;-42
2021/12/19 14:33:33;;;;;;;8.68;4.63;;;;;;;;;;5054142;28;20375;-48
2021/12/19 14:35:59;;;;;;;6.28;4.32;;;;;;;;;;5054059;28;20112;-46
2021/12/19 14:38:24;;;;;;;7.95;4.28;;;;;;;;;;5054378;28;20021;-45
2021/12/19 14:40:56;;;;;;;6.88;4.40;;;;;;;;;;5053949;28;20063;-39
2021/12/19 14:43:22;;;;;;;9.13;4.85;;;;;;;;;;5054218;28;20025;-47
2021/12/19 14:45:53;;;;;;;5.50;4.10;;;;;;;;;;5053910;28;20044;-43
2021/12/19 14:48:39;;;;;;;7.45;4.40;;;;;;;;;;5036208;28;20040;-44
2021/12/19 14:51:12;;;;;;;10.05;5.05;;;;;;;;;;5053796;28;20117;-45
2021/12/19 14:53:42;;;;;;;9.65;5.25;;;;;;;;;;5053623;28;20040;-37
2021/12/19 14:56:15;;;;;;;10.65;4.60;;;;;;;;;;5054043;28;20051;-38
2021/12/19 14:58:44;;;;;;;7.18;4.30;;;;;;;;;;5053711;28;20040;-36
2021/12/19 15:01:13;;;;;;;9.02;4.75;;;;;;;;;;5053916;28;20021;-38
2021/12/19 15:03:51;;;;;;;9.32;5.57;;;;;;;;;;5053250;28;20028;-37
2021/12/19 15:06:22;;;;;;;6.40;4.35;;;;;;;;;;5034278;28;20029;-38
2021/12/19 15:08:48;;;;;;;12.27;4.93;;;;;;;;;;5052615;28;20112;-38
2021/12/19 15:11:14;;;;;;;9.32;4.68;;;;;;;;;;5053575;28;20627;-37
2021/12/19 15:13:41;;;;;;;7.57;4.50;;;;;;;;;;5052934;28;20097;-38
2021/12/19 15:16:07;;;;;;;5.35;4.07;;;;;;;;;;5053408;28;20052;-38
2021/12/19 15:18:35;;;;;;;7.03;4.93;;;;;;;;;;5053350;28;20363;-38
2021/12/19 15:21:01;;;;;;;8.60;4.93;;;;;;;;;;5053460;28;20032;-38
2021/12/19 15:23:27;;;;;;;8.38;4.78;;;;;;;;;;5053269;28;20035;-37
2021/12/19 15:25:53;;;;;;;8.43;5.20;;;;;;;;;;5053202;28;20025;-38
2021/12/19 15:28:22;;;;;;;8.05;5.10;;;;;;;;;;5053133;28;20021;-38
2021/12/19 15:30:54;;;;;;;8.00;5.00;;;;;;;;;;5053474;28;20051;-38
2021/12/19 15:33:20;;;;;;;6.60;4.65;;;;;;;;;;5053349;28;20441;-38
2021/12/19 15:35:47;;;;;;;6.50;4.68;;;;;;;;;;5053013;28;20056;-38
2021/12/19 15:38:14;;;;;;;5.57;4.18;;;;;;;;;;5053314;28;20115;-37
2021/12/19 15:40:40;;;;;;;7.30;4.97;;;;;;;;;;5052964;28;20469;-37
2021/12/19 15:43:06;;;;;;;10.00;5.00;;;;;;;;;;5053143;28;20106;-37
2021/12/19 15:45:32;;;;;;;11.70;5.13;;;;;;;;;;5053207;28;20465;-38
2021/12/19 15:47:59;;;;;;;9.52;5.35;;;;;;;;;;5052885;28;20151;-38
2021/12/19 15:50:25;;;;;;;8.15;5.28;;;;;;;;;;5052737;28;20040;-39
2021/12/19 15:52:50;;;;;;;8.48;4.78;;;;;;;;;;5052789;28;20029;-38